Time,TemperatureF,DewpointF,PressureIn,WindDirection,WindDirectionDegrees,WindSpeedMPH,WindSpeedGustMPH,Humidity,HourlyPrecipIn,Conditions,Clouds,dailyrainin,SoftwareType,DateUTC
2013-06-14 00:00:00,56.0,54.6,29.57,ENE,58,3.0,3.0,95,0.00,,,0.00,Wunderground v.1.15,2013-06-14 04:00:00,
2013-06-14 00:05:00,56.0,54.6,29.57,NNE,16,3.0,3.0,95,0.00,,,0.00,Wunderground v.1.15,2013-06-14 04:05:00,
2013-06-14 00:10:00,55.9,54.5,29.57,NE,55,2.0,2.0,95,0.00,,,0.00,Wunderground v.1.15,2013-06-14 04:10:00,
2013-06-14 00:15:00,55.8,54.4,29.57,North,5,3.0,3.0,95,0.00,,,0.00,Wunderground v.1.15,2013-06-14 04:15:00,
2013-06-14 00:25:00,55.6,54.2,29.58,North,11,3.0,3.0,95,0.00,,,0.01,Wunderground v.1.15,2013-06-14 04:25:00,
2013-06-14 00:30:00,55.5,54.1,29.58,NE,53,2.0,3.0,95,0.00,,,0.01,Wunderground v.1.15,2013-06-14 04:30:00,
2013-06-14 00:40:00,55.4,54.0,29.59,NE,56,1.0,2.0,95,0.05,,,0.02,Wunderground v.1.15,2013-06-14 04:40:00,
2013-06-14 00:50:00,55.2,53.8,29.59,ENE,68,2.0,2.0,95,0.04,,,0.02,Wunderground v.1.15,2013-06-14 04:50:00,
2013-06-14 01:00:00,55.0,53.6,29.60,NE,54,1.0,4.0,95,0.00,,,0.03,Wunderground v.1.15,2013-06-14 05:00:00,
2013-06-14 01:10:00,54.9,53.5,29.61,SSE,160,2.0,2.0,95,0.00,,,0.03,Wunderground v.1.15,2013-06-14 05:10:00,
2013-06-14 01:15:00,54.8,53.4,29.61,WNW,284,2.0,5.0,95,0.00,,,0.03,Wunderground v.1.15,2013-06-14 05:15:00,
2013-06-14 01:25:00,54.8,53.4,29.62,NNW,345,1.0,2.0,95,0.00,,,0.04,Wunderground v.1.15,2013-06-14 05:25:00,
2013-06-14 01:30:00,54.7,53.3,29.61,ENE,65,2.0,2.0,95,0.00,,,0.04,Wunderground v.1.15,2013-06-14 05:30:00,
2013-06-14 01:40:00,54.7,53.6,29.61,NE,41,1.0,1.0,96,0.00,,,0.04,Wunderground v.1.15,2013-06-14 05:40:00,
2013-06-14 01:45:00,54.6,53.5,29.62,ENE,69,1.0,2.0,96,0.00,,,0.05,Wunderground v.1.15,2013-06-14 05:45:00,
2013-06-14 01:55:00,54.6,53.5,29.62,ENE,61,1.0,1.0,96,0.00,,,0.05,Wunderground v.1.15,2013-06-14 05:55:00,
2013-06-14 02:00:00,54.6,53.5,29.63,ENE,65,1.0,1.0,96,0.00,,,0.05,Wunderground v.1.15,2013-06-14 06:00:00,
2013-06-14 02:10:00,54.7,53.6,29.64,ENE,65,0.0,0.0,96,0.00,,,0.06,Wunderground v.1.15,2013-06-14 06:10:00,
2013-06-14 02:15:00,54.6,53.5,29.64,NNW,338,0.0,1.0,96,0.06,,,0.07,Wunderground v.1.15,2013-06-14 06:15:00,
2013-06-14 02:25:00,54.6,53.5,29.64,ENE,57,1.0,5.0,96,0.08,,,0.08,Wunderground v.1.15,2013-06-14 06:25:00,
2013-06-14 02:30:00,54.6,53.5,29.63,NE,47,1.0,1.0,96,0.08,,,0.09,Wunderground v.1.15,2013-06-14 06:30:00,
2013-06-14 02:40:00,54.6,53.5,29.64,East,92,1.0,1.0,96,0.05,,,0.09,Wunderground v.1.15,2013-06-14 06:40:00,
2013-06-14 02:45:00,54.6,53.5,29.65,East,92,0.0,1.0,96,0.00,,,0.09,Wunderground v.1.15,2013-06-14 06:45:00,
2013-06-14 02:55:00,54.6,53.8,29.64,East,92,0.0,0.0,97,0.00,,,0.09,Wunderground v.1.15,2013-06-14 06:55:00,
2013-06-14 03:00:00,54.6,53.8,29.65,East,92,0.0,0.0,97,0.00,,,0.09,Wunderground v.1.15,2013-06-14 07:00:00,
2013-06-14 03:10:00,54.6,53.8,29.65,East,92,0.0,0.0,97,0.00,,,0.09,Wunderground v.1.15,2013-06-14 07:10:00,
2013-06-14 03:15:00,54.6,53.8,29.65,ENE,67,1.0,1.0,97,0.00,,,0.09,Wunderground v.1.15,2013-06-14 07:15:00,
2013-06-14 03:25:00,54.5,53.7,29.66,ENE,66,0.0,1.0,97,0.00,,,0.09,Wunderground v.1.15,2013-06-14 07:25:00,
2013-06-14 03:30:00,54.5,53.7,29.66,ENE,71,0.0,2.0,97,0.00,,,0.09,Wunderground v.1.15,2013-06-14 07:30:00,
2013-06-14 03:40:00,54.6,53.8,29.66,ENE,70,1.0,1.0,97,0.00,,,0.09,Wunderground v.1.15,2013-06-14 07:40:00,
2013-06-14 03:45:00,54.6,53.5,29.67,ENE,74,1.0,1.0,96,0.00,,,0.09,Wunderground v.1.15,2013-06-14 07:45:00,
2013-06-14 03:55:00,54.6,53.5,29.67,NE,51,1.0,3.0,96,0.00,,,0.09,Wunderground v.1.15,2013-06-14 07:55:00,
2013-06-14 04:01:00,54.6,53.5,29.67,NE,51,1.0,1.0,96,0.00,,,0.09,Wunderground v.1.15,2013-06-14 08:01:00,
2013-06-14 04:10:00,54.5,53.4,29.67,NE,51,0.0,0.0,96,0.00,,,0.09,Wunderground v.1.15,2013-06-14 08:10:00,
2013-06-14 04:15:00,54.5,53.4,29.67,ENE,60,0.0,0.0,96,0.00,,,0.09,Wunderground v.1.15,2013-06-14 08:15:00,
2013-06-14 04:25:00,54.4,53.3,29.68,ENE,60,0.0,1.0,96,0.00,,,0.09,Wunderground v.1.15,2013-06-14 08:25:00,
2013-06-14 04:30:00,54.4,53.3,29.68,ENE,60,0.0,0.0,96,0.00,,,0.09,Wunderground v.1.15,2013-06-14 08:30:00,
2013-06-14 04:40:00,54.4,53.3,29.68,ENE,60,0.0,1.0,96,0.00,,,0.09,Wunderground v.1.15,2013-06-14 08:40:00,
2013-06-14 04:45:00,54.4,53.3,29.68,ENE,72,0.0,1.0,96,0.00,,,0.10,Wunderground v.1.15,2013-06-14 08:45:00,
2013-06-14 04:55:00,54.4,53.3,29.68,ENE,59,1.0,1.0,96,0.00,,,0.10,Wunderground v.1.15,2013-06-14 08:55:00,
2013-06-14 05:00:00,54.3,53.2,29.68,ENE,64,0.0,0.0,96,0.00,,,0.10,Wunderground v.1.15,2013-06-14 09:00:00,
2013-06-14 05:10:00,54.3,53.2,29.69,ENE,63,1.0,1.0,96,0.00,,,0.10,Wunderground v.1.15,2013-06-14 09:10:00,
2013-06-14 05:15:00,54.3,53.2,29.69,NE,50,1.0,1.0,96,0.00,,,0.10,Wunderground v.1.15,2013-06-14 09:15:00,
2013-06-14 05:25:00,54.4,53.0,29.69,NE,52,1.0,3.0,95,0.00,,,0.10,Wunderground v.1.15,2013-06-14 09:25:00,
2013-06-14 05:30:00,54.5,53.1,29.70,NE,52,1.0,1.0,95,0.00,,,0.10,Wunderground v.1.15,2013-06-14 09:30:00,
2013-06-14 05:40:00,54.4,52.7,29.70,WNW,286,1.0,1.0,94,0.00,,,0.10,Wunderground v.1.15,2013-06-14 09:40:00,
2013-06-14 05:46:00,54.1,52.1,29.70,NE,36,1.0,3.0,93,0.00,,,0.10,Wunderground v.1.15,2013-06-14 09:46:00,
2013-06-14 05:55:00,54.0,52.0,29.71,SE,124,1.0,2.0,93,0.00,,,0.10,Wunderground v.1.15,2013-06-14 09:55:00,
2013-06-14 06:00:00,53.9,51.6,29.71,NE,34,1.0,2.0,92,0.00,,,0.10,Wunderground v.1.15,2013-06-14 10:00:00,
2013-06-14 06:10:00,53.9,51.3,29.72,ENE,67,1.0,1.0,91,0.00,,,0.10,Wunderground v.1.15,2013-06-14 10:10:00,
2013-06-14 06:15:00,53.9,51.6,29.73,WSW,250,1.0,1.0,92,0.00,,,0.10,Wunderground v.1.15,2013-06-14 10:15:00,
2013-06-14 06:25:00,53.9,51.6,29.72,ESE,119,0.0,0.0,92,0.00,,,0.10,Wunderground v.1.15,2013-06-14 10:25:00,
2013-06-14 06:30:00,53.9,51.6,29.73,ESE,119,0.0,0.0,92,0.00,,,0.10,Wunderground v.1.15,2013-06-14 10:30:00,
2013-06-14 06:40:00,53.8,51.5,29.73,ENE,65,0.0,0.0,92,0.00,,,0.10,Wunderground v.1.15,2013-06-14 10:40:00,
2013-06-14 06:45:00,54.0,51.7,29.73,NE,56,1.0,1.0,92,0.00,,,0.10,Wunderground v.1.15,2013-06-14 10:45:00,
2013-06-14 06:55:00,54.2,51.6,29.73,NE,49,1.0,1.0,91,0.00,,,0.10,Wunderground v.1.15,2013-06-14 10:55:00,
2013-06-14 07:00:00,54.4,51.8,29.73,ENE,61,1.0,1.0,91,0.00,,,0.10,Wunderground v.1.15,2013-06-14 11:00:00,
2013-06-14 07:10:00,54.8,51.9,29.73,ESE,105,1.0,1.0,90,0.00,,,0.10,Wunderground v.1.15,2013-06-14 11:10:00,
2013-06-14 07:15:00,54.9,52.0,29.74,ENE,71,1.0,1.0,90,0.00,,,0.10,Wunderground v.1.15,2013-06-14 11:15:00,
2013-06-14 07:25:00,55.1,51.9,29.74,NNE,33,1.0,3.0,89,0.00,,,0.10,Wunderground v.1.15,2013-06-14 11:25:00,
2013-06-14 07:30:00,55.2,51.7,29.74,ESE,112,1.0,2.0,88,0.00,,,0.10,Wunderground v.1.15,2013-06-14 11:30:00,
2013-06-14 07:40:00,55.3,51.8,29.74,SE,126,1.0,1.0,88,0.00,,,0.10,Wunderground v.1.15,2013-06-14 11:40:00,
2013-06-14 07:45:00,55.5,52.3,29.75,East,84,1.0,1.0,89,0.00,,,0.10,Wunderground v.1.15,2013-06-14 11:45:00,
2013-06-14 07:55:00,55.5,52.6,29.75,East,84,0.0,0.0,90,0.00,,,0.10,Wunderground v.1.15,2013-06-14 11:55:00,
2013-06-14 08:00:00,55.6,53.0,29.76,East,84,0.0,0.0,91,0.00,,,0.10,Wunderground v.1.15,2013-06-14 12:00:00,
2013-06-14 08:10:00,55.5,52.9,29.77,ENE,63,0.0,0.0,91,0.00,,,0.10,Wunderground v.1.15,2013-06-14 12:10:00,
2013-06-14 08:20:00,55.7,52.8,29.77,SSE,153,0.0,0.0,90,0.00,,,0.10,Wunderground v.1.15,2013-06-14 12:20:00,
2013-06-14 08:25:00,55.8,52.9,29.78,SSE,153,0.0,0.0,90,0.00,,,0.10,Wunderground v.1.15,2013-06-14 12:25:00,
2013-06-14 08:30:00,55.9,53.0,29.78,SSW,205,0.0,0.0,90,0.00,,,0.10,Wunderground v.1.15,2013-06-14 12:30:00,
2013-06-14 08:40:00,56.1,53.5,29.79,SSW,205,0.0,0.0,91,0.00,,,0.10,Wunderground v.1.15,2013-06-14 12:40:00,
2013-06-14 08:45:00,56.0,53.1,29.79,SSW,205,0.0,0.0,90,0.00,,,0.10,Wunderground v.1.15,2013-06-14 12:45:00,
2013-06-14 08:55:00,56.2,53.3,29.79,East,93,0.0,1.0,90,0.00,,,0.10,Wunderground v.1.15,2013-06-14 12:55:00,
2013-06-14 09:01:00,56.4,53.2,29.79,East,93,0.0,0.0,89,0.00,,,0.10,Wunderground v.1.15,2013-06-14 13:01:00,
2013-06-14 09:10:00,56.9,53.7,29.79,East,92,0.0,0.0,89,0.00,,,0.10,Wunderground v.1.15,2013-06-14 13:10:00,
2013-06-14 09:20:00,57.3,54.1,29.80,East,92,0.0,1.0,89,0.00,,,0.10,Wunderground v.1.15,2013-06-14 13:20:00,
2013-06-14 09:25:00,57.7,54.5,29.80,East,92,0.0,1.0,89,0.00,,,0.10,Wunderground v.1.15,2013-06-14 13:25:00,
2013-06-14 09:30:00,58.0,54.5,29.80,East,92,0.0,0.0,88,0.00,,,0.10,Wunderground v.1.15,2013-06-14 13:30:00,
2013-06-14 09:40:00,58.6,54.7,29.80,East,93,0.0,0.0,87,0.00,,,0.10,Wunderground v.1.15,2013-06-14 13:40:00,
2013-06-14 09:45:00,58.9,54.4,29.81,East,93,0.0,0.0,85,0.00,,,0.10,Wunderground v.1.15,2013-06-14 13:45:00,
2013-06-14 09:55:00,59.4,54.9,29.81,East,92,0.0,0.0,85,0.00,,,0.10,Wunderground v.1.15,2013-06-14 13:55:00,
2013-06-14 10:00:00,59.4,54.2,29.81,SSE,164,0.0,0.0,83,0.00,,,0.10,Wunderground v.1.15,2013-06-14 14:00:00,
2013-06-14 10:10:00,59.8,55.3,29.81,East,96,0.0,0.0,85,0.00,,,0.10,Wunderground v.1.15,2013-06-14 14:10:00,
2013-06-14 10:15:00,60.1,54.9,29.81,East,96,0.0,0.0,83,0.00,,,0.10,Wunderground v.1.15,2013-06-14 14:15:00,
2013-06-14 10:25:00,60.6,55.7,29.82,NE,34,0.0,1.0,84,0.00,,,0.10,Wunderground v.1.15,2013-06-14 14:25:00,
2013-06-14 10:30:00,60.8,55.6,29.82,NW,308,0.0,0.0,83,0.00,,,0.10,Wunderground v.1.15,2013-06-14 14:30:00,
2013-06-14 10:40:00,61.2,55.3,29.82,NW,304,0.0,0.0,81,0.00,,,0.10,Wunderground v.1.15,2013-06-14 14:40:00,
2013-06-14 10:45:00,61.4,55.2,29.82,NW,304,0.0,1.0,80,0.00,,,0.10,Wunderground v.1.15,2013-06-14 14:45:00,
2013-06-14 10:55:00,62.3,55.0,29.83,NE,51,0.0,2.0,77,0.00,,,0.10,Wunderground v.1.15,2013-06-14 14:55:00,
2013-06-14 11:00:00,62.7,55.0,29.82,NW,318,1.0,1.0,76,0.00,,,0.10,Wunderground v.1.15,2013-06-14 15:00:00,
2013-06-14 11:10:00,63.4,55.0,29.82,East,79,1.0,1.0,74,0.00,,,0.10,Wunderground v.1.15,2013-06-14 15:10:00,
2013-06-14 11:15:00,64.3,57.3,29.82,East,79,1.0,1.0,78,0.00,,,0.10,Wunderground v.1.15,2013-06-14 15:15:00,
2013-06-14 11:25:00,65.6,55.2,29.82,ESE,104,1.0,1.0,69,0.00,,,0.10,Wunderground v.1.15,2013-06-14 15:25:00,
2013-06-14 11:30:00,65.7,55.2,29.82,SSE,147,1.0,1.0,69,0.00,,,0.10,Wunderground v.1.15,2013-06-14 15:30:00,
2013-06-14 12:30:00,72.3,59.0,29.81,South,171,0.0,1.0,63,0.00,,,0.10,Wunderground v.1.15,2013-06-14 16:30:00,
2013-06-14 12:40:00,73.0,59.2,29.81,South,181,1.0,1.0,62,0.00,,,0.10,Wunderground v.1.15,2013-06-14 16:40:00,
2013-06-14 12:50:00,72.9,60.0,29.80,SSW,202,0.0,1.0,64,0.00,,,0.10,Wunderground v.1.15,2013-06-14 16:50:00,
2013-06-14 12:55:00,72.9,59.1,29.80,SW,226,1.0,2.0,62,0.00,,,0.10,Wunderground v.1.15,2013-06-14 16:55:00,
2013-06-14 13:05:00,73.3,59.0,29.80,South,184,0.0,1.0,61,0.00,,,0.10,Wunderground v.1.15,2013-06-14 17:05:00,
2013-06-14 13:19:00,73.2,60.3,29.80,NE,41,1.0,3.0,64,0.00,,,0.10,Wunderground v.1.15,2013-06-14 17:19:00,
2013-06-14 13:30:00,73.5,58.3,29.80,West,262,1.0,1.0,59,0.00,,,0.10,Wunderground v.1.15,2013-06-14 17:30:00,
2013-06-14 13:40:00,73.7,59.4,29.80,WNW,296,1.0,1.0,61,0.00,,,0.10,Wunderground v.1.15,2013-06-14 17:40:00,
2013-06-14 13:45:00,73.7,58.5,29.79,WNW,296,1.0,1.0,59,0.00,,,0.10,Wunderground v.1.15,2013-06-14 17:45:00,
2013-06-14 13:54:00,74.8,59.5,29.79,WNW,301,0.0,1.0,59,0.00,,,0.10,Wunderground v.1.15,2013-06-14 17:54:00,
2013-06-14 14:00:00,75.6,58.8,29.79,ENE,77,1.0,1.0,56,0.00,,,0.10,Wunderground v.1.15,2013-06-14 18:00:00,
2013-06-14 14:09:00,75.1,59.3,29.79,South,171,1.0,1.0,58,0.00,,,0.10,Wunderground v.1.15,2013-06-14 18:09:00,
2013-06-14 14:15:00,74.6,59.3,29.79,ENE,57,1.0,2.0,59,0.00,,,0.10,Wunderground v.1.15,2013-06-14 18:15:00,
2013-06-14 14:24:00,73.5,58.8,29.79,West,264,1.0,1.0,60,0.00,,,0.10,Wunderground v.1.15,2013-06-14 18:24:00,
2013-06-14 14:30:00,73.9,57.2,29.79,ESE,113,1.0,1.0,56,0.00,,,0.10,Wunderground v.1.15,2013-06-14 18:30:00,
2013-06-14 14:39:00,75.5,60.2,29.78,West,263,1.0,1.0,59,0.00,,,0.10,Wunderground v.1.15,2013-06-14 18:39:00,
2013-06-14 14:45:00,76.4,59.0,29.79,SW,234,1.0,1.0,55,0.00,,,0.10,Wunderground v.1.15,2013-06-14 18:45:00,
2013-06-14 14:54:00,76.9,58.5,29.78,NNE,26,1.0,2.0,53,0.00,,,0.10,Wunderground v.1.15,2013-06-14 18:54:00,
2013-06-14 15:00:00,77.0,59.1,29.78,NNW,329,1.0,1.0,54,0.00,,,0.10,Wunderground v.1.15,2013-06-14 19:00:00,
2013-06-14 15:09:00,75.3,57.0,29.78,West,281,2.0,2.0,53,0.00,,,0.10,Wunderground v.1.15,2013-06-14 19:09:00,
2013-06-14 15:15:00,74.6,57.9,29.78,WSW,258,1.0,2.0,56,0.00,,,0.10,Wunderground v.1.15,2013-06-14 19:15:00,
2013-06-14 15:24:00,74.4,58.7,29.78,NW,306,1.0,4.0,58,0.00,,,0.10,Wunderground v.1.15,2013-06-14 19:24:00,
2013-06-14 15:30:00,74.9,59.1,29.78,WSW,252,2.0,2.0,58,0.00,,,0.10,Wunderground v.1.15,2013-06-14 19:30:00,
2013-06-14 15:39:00,75.2,58.4,29.78,ENE,58,2.0,5.0,56,0.00,,,0.10,Wunderground v.1.15,2013-06-14 19:39:00,
2013-06-14 15:45:00,75.3,59.5,29.79,SW,225,3.0,5.0,58,0.00,,,0.10,Wunderground v.1.15,2013-06-14 19:45:00,
2013-06-14 15:54:00,75.6,57.8,29.79,WNW,298,2.0,3.0,54,0.00,,,0.10,Wunderground v.1.15,2013-06-14 19:54:00,
2013-06-14 16:00:00,75.4,57.6,29.79,WNW,296,1.0,1.0,54,0.00,,,0.10,Wunderground v.1.15,2013-06-14 20:00:00,
2013-06-14 16:09:00,75.2,57.9,29.78,SSW,207,2.0,3.0,55,0.00,,,0.10,Wunderground v.1.15,2013-06-14 20:09:00,
2013-06-14 16:15:00,75.1,56.8,29.78,North,9,2.0,3.0,53,0.00,,,0.10,Wunderground v.1.15,2013-06-14 20:15:00,
2013-06-14 16:24:00,75.1,57.8,29.78,NNW,342,2.0,2.0,55,0.00,,,0.10,Wunderground v.1.15,2013-06-14 20:24:00,
2013-06-14 16:30:00,75.3,58.5,29.79,NW,307,2.0,3.0,56,0.00,,,0.10,Wunderground v.1.15,2013-06-14 20:30:00,
2013-06-14 16:39:00,75.5,56.6,29.79,WNW,297,3.0,3.0,52,0.00,,,0.10,Wunderground v.1.15,2013-06-14 20:39:00,
2013-06-14 16:45:00,75.3,57.0,29.79,NW,307,3.0,3.0,53,0.00,,,0.10,Wunderground v.1.15,2013-06-14 20:45:00,
2013-06-14 16:54:00,75.3,57.5,29.79,WSW,248,1.0,2.0,54,0.00,,,0.10,Wunderground v.1.15,2013-06-14 20:54:00,
2013-06-14 17:00:00,75.7,58.9,29.79,SE,132,1.0,2.0,56,0.00,,,0.10,Wunderground v.1.15,2013-06-14 21:00:00,
2013-06-14 17:09:00,76.2,58.3,29.80,WNW,284,2.0,2.0,54,0.00,,,0.10,Wunderground v.1.15,2013-06-14 21:09:00,
2013-06-14 17:15:00,76.3,57.9,29.80,ENE,61,2.0,2.0,53,0.00,,,0.10,Wunderground v.1.15,2013-06-14 21:15:00,
2013-06-14 17:24:00,75.3,57.5,29.81,East,83,3.0,3.0,54,0.00,,,0.10,Wunderground v.1.15,2013-06-14 21:24:00,
2013-06-14 17:30:00,73.8,57.1,29.81,ENE,71,2.0,2.0,56,0.00,,,0.10,Wunderground v.1.15,2013-06-14 21:30:00,
2013-06-14 17:39:00,72.4,56.8,29.81,ESE,102,1.0,1.0,58,0.00,,,0.10,Wunderground v.1.15,2013-06-14 21:39:00,
2013-06-14 17:45:00,71.9,57.7,29.81,NE,50,1.0,1.0,61,0.00,,,0.10,Wunderground v.1.15,2013-06-14 21:45:00,
2013-06-14 17:54:00,71.9,58.6,29.81,NE,51,1.0,2.0,63,0.00,,,0.10,Wunderground v.1.15,2013-06-14 21:54:00,
2013-06-14 18:00:00,72.2,58.0,29.81,ENE,65,1.0,1.0,61,0.00,,,0.10,Wunderground v.1.15,2013-06-14 22:00:00,
2013-06-14 18:09:00,73.3,58.6,29.82,ENE,65,2.0,2.0,60,0.00,,,0.10,Wunderground v.1.15,2013-06-14 22:09:00,
2013-06-14 18:15:00,72.2,58.9,29.83,ESE,113,3.0,3.0,63,0.00,,,0.10,Wunderground v.1.15,2013-06-14 22:15:00,
2013-06-14 18:24:00,70.1,58.6,29.84,ENE,67,2.0,3.0,67,0.00,,,0.10,Wunderground v.1.15,2013-06-14 22:24:00,
2013-06-14 18:29:00,69.2,58.2,29.85,ESE,109,2.0,2.0,68,0.00,,,0.10,Wunderground v.1.15,2013-06-14 22:29:00,
2013-06-14 18:39:00,68.2,57.6,29.85,East,94,2.0,2.0,69,0.00,,,0.10,Wunderground v.1.15,2013-06-14 22:39:00,
2013-06-14 18:44:00,67.6,57.9,29.85,SSE,157,1.0,2.0,71,0.00,,,0.10,Wunderground v.1.15,2013-06-14 22:44:00,
2013-06-14 18:54:00,66.9,58.0,29.86,SSE,150,0.0,0.0,73,0.00,,,0.10,Wunderground v.1.15,2013-06-14 22:54:00,
2013-06-14 18:59:00,66.5,58.0,29.86,SSE,150,0.0,0.0,74,0.00,,,0.10,Wunderground v.1.15,2013-06-14 22:59:00,
2013-06-14 19:09:00,66.2,58.4,29.86,ESE,112,1.0,1.0,76,0.00,,,0.10,Wunderground v.1.15,2013-06-14 23:09:00,
2013-06-14 19:14:00,66.3,58.5,29.86,ESE,112,0.0,1.0,76,0.00,,,0.10,Wunderground v.1.15,2013-06-14 23:14:00,
2013-06-14 19:24:00,66.3,57.8,29.86,ESE,112,0.0,0.0,74,0.00,,,0.10,Wunderground v.1.15,2013-06-14 23:24:00,
2013-06-14 19:29:00,66.3,57.8,29.86,ENE,59,0.0,0.0,74,0.00,,,0.10,Wunderground v.1.15,2013-06-14 23:29:00,
2013-06-14 19:39:00,66.4,58.2,29.87,ENE,59,0.0,0.0,75,0.00,,,0.10,Wunderground v.1.15,2013-06-14 23:39:00,
2013-06-14 19:45:00,66.5,58.3,29.86,ENE,59,0.0,0.0,75,0.00,,,0.10,Wunderground v.1.15,2013-06-14 23:45:00,
2013-06-14 19:54:00,66.5,58.3,29.86,ENE,59,0.0,0.0,75,0.00,,,0.10,Wunderground v.1.15,2013-06-14 23:54:00,
2013-06-14 20:00:00,66.4,58.6,29.86,ENE,59,0.0,0.0,76,0.00,,,0.10,Wunderground v.1.15,2013-06-15 00:00:00,
2013-06-14 20:09:00,66.2,58.0,29.87,ENE,59,0.0,0.0,75,0.00,,,0.10,Wunderground v.1.15,2013-06-15 00:09:00,
2013-06-14 20:14:00,66.0,58.2,29.86,ENE,59,0.0,0.0,76,0.00,,,0.10,Wunderground v.1.15,2013-06-15 00:14:00,
2013-06-14 20:25:00,65.4,58.4,29.87,ENE,59,0.0,0.0,78,0.00,,,0.10,Wunderground v.1.15,2013-06-15 00:25:00,
2013-06-14 20:30:00,65.0,58.3,29.87,ENE,59,0.0,0.0,79,0.00,,,0.10,Wunderground v.1.15,2013-06-15 00:30:00,
2013-06-14 20:40:00,64.1,58.1,29.87,ENE,59,0.0,0.0,81,0.00,,,0.10,Wunderground v.1.15,2013-06-15 00:40:00,
2013-06-14 20:45:00,63.5,57.9,29.86,ENE,59,0.0,0.0,82,0.00,,,0.10,Wunderground v.1.15,2013-06-15 00:45:00,
2013-06-14 20:55:00,62.9,58.0,29.86,ENE,59,0.0,0.0,84,0.00,,,0.10,Wunderground v.1.15,2013-06-15 00:55:00,
2013-06-14 21:00:00,62.5,57.9,29.87,ENE,59,0.0,0.0,85,0.00,,,0.10,Wunderground v.1.15,2013-06-15 01:00:00,
2013-06-14 21:10:00,61.9,57.7,29.87,ENE,59,0.0,0.0,86,0.00,,,0.10,Wunderground v.1.15,2013-06-15 01:10:00,
2013-06-14 21:20:00,61.3,57.4,29.88,ENE,59,0.0,0.0,87,0.00,,,0.10,Wunderground v.1.15,2013-06-15 01:20:00,
2013-06-14 21:25:00,61.1,57.5,29.88,ENE,59,0.0,0.0,88,0.00,,,0.10,Wunderground v.1.15,2013-06-15 01:25:00,
2013-06-14 21:35:00,60.6,57.3,29.89,ENE,59,0.0,0.0,89,0.00,,,0.10,Wunderground v.1.15,2013-06-15 01:35:00,
2013-06-14 21:40:00,60.4,57.5,29.89,ENE,59,0.0,0.0,90,0.00,,,0.10,Wunderground v.1.15,2013-06-15 01:40:00,
2013-06-14 21:49:00,60.1,57.2,29.90,ENE,59,0.0,0.0,90,0.00,,,0.10,Wunderground v.1.15,2013-06-15 01:49:00,
2013-06-14 21:55:00,59.8,57.2,29.90,ENE,59,0.0,0.0,91,0.00,,,0.10,Wunderground v.1.15,2013-06-15 01:55:00,
2013-06-14 22:00:00,59.6,57.0,29.91,ENE,59,0.0,0.0,91,0.00,,,0.10,Wunderground v.1.15,2013-06-15 02:00:00,
2013-06-14 22:09:00,59.3,57.0,29.91,ENE,59,0.0,0.0,92,0.00,,,0.10,Wunderground v.1.15,2013-06-15 02:09:00,
2013-06-14 22:15:00,59.1,56.8,29.91,ENE,59,0.0,0.0,92,0.00,,,0.10,Wunderground v.1.15,2013-06-15 02:15:00,
2013-06-14 22:24:00,58.7,56.7,29.91,ENE,59,0.0,0.0,93,0.00,,,0.10,Wunderground v.1.15,2013-06-15 02:24:00,
2013-06-14 22:34:00,58.4,56.4,29.91,ENE,59,0.0,0.0,93,0.00,,,0.10,Wunderground v.1.15,2013-06-15 02:34:00,
2013-06-14 22:45:00,58.1,56.4,29.91,ENE,59,0.0,0.0,94,0.00,,,0.10,Wunderground v.1.15,2013-06-15 02:45:00,
2013-06-14 22:54:00,57.7,56.0,29.91,ENE,59,0.0,0.0,94,0.00,,,0.10,Wunderground v.1.15,2013-06-15 02:54:00,
2013-06-14 23:04:00,57.5,55.8,29.91,ENE,59,0.0,0.0,94,0.00,,,0.10,Wunderground v.1.15,2013-06-15 03:04:00,
2013-06-14 23:15:00,57.3,55.9,29.91,ENE,59,0.0,0.0,95,0.00,,,0.10,Wunderground v.1.15,2013-06-15 03:15:00,
2013-06-14 23:24:00,57.1,55.7,29.92,ENE,59,0.0,0.0,95,0.00,,,0.10,Wunderground v.1.15,2013-06-15 03:24:00,
2013-06-14 23:30:00,57.0,55.6,29.92,ENE,59,0.0,0.0,95,0.00,,,0.10,Wunderground v.1.15,2013-06-15 03:30:00,
2013-06-14 23:39:00,56.7,55.3,29.92,ENE,59,0.0,0.0,95,0.00,,,0.10,Wunderground v.1.15,2013-06-15 03:39:00,
2013-06-14 23:45:00,56.6,55.2,29.92,ENE,59,0.0,0.0,95,0.00,,,0.10,Wunderground v.1.15,2013-06-15 03:45:00,
2013-06-14 23:54:00,56.5,55.1,29.93,ENE,59,0.0,0.0,95,0.00,,,0.10,Wunderground v.1.15,2013-06-15 03:54:00,